Rain radar  rain snow radar


Leuven Template:n sääsivut:

Template documentation
and downloads

And another site



Normaali sää.    Ei varoituksia

Select another period ( hide this area )

Yksiköt Aika Custom range Directly to
Metriset Englantilaiset Molemmat
Päivittäin Viikoittain Kuukausittain Vuosittain
use both date-selectors for a custom range
previous Päivä
With this date

WeatherUnderground graphs for this period ( click here )


Päivittäin yhteenveto Maanantai 09 Joulukuu 2019
Aika Temp. ( °C ) Dew pt. ( °C ) Tuuli ( km/h ) Alkaa Puuska ( km/h ) Ilmanpaine ( hPa ) Humid.( % ) Rainrate ( cm ) Aurinkoenergia ( W/m2 )
Ylin5,5 4,4 32,0 Lounas ( 653/1794 ) 35,4 977,9 94 3,60 23
Keskiarvo4,7 3,4 14,2 Lounas #51/126 15,9 975,4 91 2,70 15 #9/126
Alin2,4 1,4 3,2   4,5 974,0 87 -  
Päivittäin Tabular details for Maanantai 09 Joulukuu 2019
Aika Temp. ( °C ) Dew pt. ( °C ) Tuuli ( km/h ) Alkaa Puuska ( km/h ) Ilmanpaine ( hPa ) Humid.( % ) Rainrate ( cm ) Aurinkoenergia ( W/m2 )
00:01 2,4 1,4 8,0 Eteläkaakko 20,9 975,6 93 0,40 -
00:05 2,5 1,5 13,0 Etelälounas 5,5 975,6 93 - -
00:11 2,7 1,7 8,0 Eteläkaakko 24,1 975,4 93 - -
00:16 2,7 1,7 13,5 Etelä 7,2 975,2 93 1,40 -
00:21 2,7 1,7 8,0 Etelä 19,3 975,2 93 - -
00:26 2,8 1,8 22,2 Etelälounas 11,9 975,1 93 1,80 -
00:30 2,9 1,9 10,1 Itäkaakko 7,2 975,0 93 1,80 -
00:36 3,0 2,0 20,4 Etelälounas 11,3 974,9 93 2,00 -
00:40 3,1 2,1 15,3 Eteläkaakko 9,8 974,8 93 2,00 -
00:45 3,2 2,2 14,8 Kaakko 8,8 974,7 93 2,00 -
00:50 3,3 2,3 16,9 Etelälounas 11,7 974,7 93 1,80 -
00:55 3,5 2,5 13,5 Kaakko 7,1 974,6 93 1,80 -
01:00 3,6 2,6 15,3 Etelälounas 9,3 974,5 93 3,60 -
01:06 3,7 2,7 25,3 Etelälounas 10,0 974,5 93 2,80 -
01:10 3,8 2,8 23,7 Etelä 13,5 974,3 93 2,20 -
01:16 3,9 2,9 22,2 Etelä 10,8 974,3 93 1,80 -
01:20 4,1 3,0 13,5 Etelälounas 7,6 974,2 93 1,60 -
01:26 4,1 3,0 15,3 Eteläkaakko 11,3 974,1 93 1,40 -
01:30 4,2 3,1 22,2 Eteläkaakko 10,0 974,1 93 1,20 -
01:35 4,3 3,2 22,2 Etelä 14,3 974,1 93 1,00 -
01:41 4,4 3,3 11,3 Etelä 27,4 974,0 93 - -
01:45 4,4 3,4 25,9 Etelälounas 10,8 974,1 93 1,00 -
01:51 4,5 3,5 11,3 Lounas 25,7 974,0 93 0,20 -
01:55 4,6 3,6 16,9 Etelälounas 6,9 974,0 93 0,80 -
02:01 4,7 3,6 11,3 Etelälounas 19,3 974,1 93 - -
02:06 4,7 3,7 18,5 Etelä 12,1 974,2 93 0,80 -
02:11 4,8 3,8 11,3 Etelä 27,4 974,1 93 - -
02:15 5,0 3,9 18,5 Etelälounas 11,6 974,2 93 1,40 -
02:21 5,1 4,0 3,2 Etelälounas 19,3 974,2 93 - -
02:25 5,0 3,9 11,9 Etelä 8,2 974,2 93 2,00 -
02:31 5,1 4,0 8,0 Lounas 12,9 974,2 93 - -
02:35 5,1 4,1 10,1 Lounas 4,5 974,2 93 2,40 -
02:40 5,2 4,2 9,3 Etelälounas 6,1 974,2 93 2,20 -
02:45 5,3 4,3 15,3 Etelälounas 9,8 974,3 93 2,20 -
02:51 5,3 4,3 9,7 Lounas 22,5 974,3 93 0,20 -
02:55 5,3 4,3 16,9 Eteläkaakko 10,1 974,3 93 2,40 -
03:01 5,4 4,3 9,7 Etelälounas 19,3 974,3 93 - -
03:05 5,4 4,4 14,8 Lounas 5,1 974,4 93 2,60 -
03:10 5,5 4,4 10,1 Lounas 6,4 974,3 93 2,20 -
03:15 5,5 4,4 16,9 Lounas 7,1 974,3 93 1,60 -
03:21 5,4 4,4 8,0 Etelälounas 22,5 974,3 93 - -
03:25 5,3 4,3 16,7 Etelälounas 12,7 974,3 93 1,00 -
03:31 5,3 4,3 9,7 Etelälounas 22,5 974,3 93 - -
03:35 5,3 4,3 16,7 Etelälounas 7,1 974,5 93 0,60 -
03:41 5,3 4,1 12,9 Lounas 27,4 974,5 92 - -
03:45 5,3 4,1 24,1 Etelä 17,1 974,5 92 0,60 -
03:51 5,3 4,1 8,0 Lounas 24,1 974,6 92 - -
03:55 5,3 4,1 15,3 Eteläkaakko 10,3 974,7 92 0,20 -
04:01 5,3 4,1 9,7 Lounas 16,1 974,7 92 - -
04:05 5,3 4,1 20,4 Lounas 12,9 974,8 92 - -
04:11 5,4 4,2 11,3 Lounas 20,9 974,8 92 - -
04:15 5,4 4,2 18,5 Länsilounas 12,4 974,9 92 - -
04:21 5,5 4,3 9,7 Lounas 20,9 974,9 92 - -
04:25 5,5 4,3 16,9 Länsilounas 9,2 975,0 92 - -
04:31 5,5 4,3 11,3 Lounas 24,1 974,9 92 - -
04:35 5,5 4,3 13,5 Lounas 9,7 975,0 92 - -
04:41 5,5 4,3 12,9 Etelälounas 20,9 975,0 92 - -
04:45 5,4 4,2 16,9 Etelä 11,1 974,9 92 - -
04:51 5,4 4,2 11,3 Etelälounas 25,7 974,9 92 - -
04:55 5,4 4,1 16,9 Lounas 11,4 975,0 91 - -
05:01 5,4 4,0 14,5 Etelälounas 30,6 975,0 91 - -
05:05 5,4 4,1 15,3 Lounas 11,3 975,2 91 - -
05:11 5,4 4,1 12,9 Lounas 24,1 975,2 91 - -
05:15 5,3 3,8 22,0 Eteläkaakko 13,2 975,2 90 - -
05:21 5,3 3,8 11,3 Etelälounas 24,1 975,2 90 - -
05:25 5,3 3,8 32,0 Etelälounas 15,6 975,2 90 - -
05:31 5,4 3,9 8,0 Etelälounas 32,2 975,2 90 - -
05:35 5,3 3,8 13,0 Länsilounas 8,2 975,2 90 - -
05:41 5,3 3,8 4,8 Lounas 16,1 975,3 90 - -
05:45 5,3 3,8 13,5 Lounas 7,2 975,3 90 - -
05:51 5,2 3,7 9,7 Etelä 22,5 975,3 90 - -
05:55 5,2 3,7 10,1 Etelä 7,6 975,4 90 - -
06:01 5,2 3,7 9,7 Etelälounas 25,7 975,4 90 - -
06:05 5,2 3,7 16,9 Lounas 11,1 975,4 90 - -
06:11 5,2 3,7 4,8 Etelälounas 20,9 975,5 90 - -
06:15 5,2 3,7 20,3 Lounas 13,4 975,5 90 - -
06:21 5,2 3,7 11,3 Lounas 20,9 975,5 90 - -
06:25 5,2 3,7 16,9 Etelälounas 8,8 975,5 90 - -
06:31 5,2 3,6 3,2 Lounas 16,1 975,5 89 - -
06:35 5,2 3,6 20,4 Etelä 10,6 975,5 89 - -
06:41 5,2 3,5 12,9 Etelälounas 24,1 975,5 89 - -
06:45 5,3 3,4 13,5 Lounas 6,6 975,6 88 - -
06:51 5,2 3,4 11,3 Lounas 35,4 975,6 88 - -
06:55 5,1 3,2 32,0 Länsilounas 20,8 975,7 88 0,20 -
07:01 4,9 4,1 14,5 Länsilounas 33,8 975,7 94 0,20 -
07:05 4,8 3,3 18,5 Länsilounas 8,8 975,7 90 0,60 -
07:11 4,8 3,3 4,8 Lounas 27,4 975,6 90 - -
07:15 4,7 3,3 13,5 Länsi 8,0 975,6 91 0,60 -
07:21 4,6 3,3 11,3 Lounas 16,1 975,7 91 - -
07:25 4,6 3,3 20,3 Länsilounas 8,2 975,6 91 0,60 -
07:31 4,6 3,2 4,8 Lounas 22,5 975,7 91 - -
07:35 4,6 3,1 16,9 Eteläkaakko 8,8 975,7 90 0,60 -
07:41 4,5 3,0 8,0 Etelälounas 22,5 975,8 90 - -
07:45 4,4 2,9 15,3 Etelälounas 9,3 975,7 90 0,60 -
07:51 4,3 2,8 9,7 Etelälounas 19,3 975,8 90 - -
07:55 4,3 2,8 16,9 Etelälounas 10,6 975,8 90 0,40 -
08:01 4,4 2,9 12,9 Etelälounas 24,1 975,8 90 - -
08:05 4,6 3,1 15,3 Lounas 10,5 975,9 90 - -
08:11 4,6 2,9 11,3 Lounas 32,2 975,9 89 - -
08:15 4,6 2,9 16,9 Lounas 11,1 975,8 89 - -
08:21 4,6 2,9 8,0 Lounas 22,5 976,0 89 - -
08:25 4,5 2,8 16,9 Lounas 10,1 976,1 89 - -
08:31 4,5 2,8 9,7 Lounas 27,4 976,3 89 - -
08:35 4,4 2,8 13,5 Länsilounas 8,5 976,4 89 - -
08:41 4,4 2,7 8,0 Lounas 19,3 976,4 89 - -
08:45 4,4 2,7 13,5 Etelälounas 10,1 976,5 89 - -
08:51 4,4 2,8 11,3 Lounas 22,5 976,5 89 - -
08:55 4,5 2,8 24,1 Lounas 10,0 976,6 89 - -
09:01 4,5 2,8 9,7 Lounas 24,1 976,7 89 - -
09:05 4,6 2,9 13,5 Lounas 9,7 976,8 89 - -
09:11 4,6 2,9 9,7 Lounas 20,9 976,9 89 - -
09:15 4,7 3,0 30,4 Lounas 18,3 977,1 89 - -
09:21 4,8 3,1 8,0 Lounas 30,6 977,2 89 - -
09:25 4,8 2,9 18,5 Etelälounas 13,0 977,3 88 - -
09:31 4,8 2,9 12,9 Lounas 25,7 977,4 88 - -
09:35 4,8 2,9 15,3 Lounas 11,1 977,5 88 - -
09:41 4,8 3,0 9,7 Lounas 19,3 977,5 88 - -
09:45 4,8 2,9 16,9 Etelä 13,0 977,5 88 - 7
09:51 4,8 3,0 11,3 Lounas 20,9 977,6 88 - 9
09:55 4,9 3,1 25,9 Lounas 13,5 977,7 88 - 9
10:01 4,9 2,9 12,9 Lounas 25,7 977,8 87 - 12
10:05 4,9 2,9 11,9 Etelä 5,8 977,8 87 - 18
10:11 4,9 2,9 11,3 Lounas 24,1 977,9 87 - 19
10:15 4,9 3,1 18,5 Eteläkaakko 8,2 977,9 88 - 23
10:21 4,8 3,0 14,5 Etelälounas 30,6 977,9 88 - 18
10:25 4,8 2,8 22,0 Lounas 15,8 977,9 87 - 18
Päivittäin yhteenveto Maanantai 09 Joulukuu 2019
Aika Temp. ( °C ) Dew pt. ( °C ) Tuuli ( km/h ) Alkaa Puuska ( km/h ) Ilmanpaine ( hPa ) Humid.( % ) Rainrate ( cm ) Aurinkoenergia ( W/m2 )
Ylin5,5 4,4 32,0 Lounas ( 653/1794 ) 35,4 977,9 94 3,60 23
Keskiarvo4,7 3,4 14,2 Lounas #51/126 15,9 975,4 91 2,70 15 #9/126
Alin2,4 1,4 3,2   4,5 974,0 87 -  
Päivittäin Tabular details for Maanantai 09 Joulukuu 2019
Aika Temp. ( °C ) Dew pt. ( °C ) Tuuli ( km/h ) Alkaa Puuska ( km/h ) Ilmanpaine ( hPa ) Humid.( % ) Rainrate ( cm ) Aurinkoenergia ( W/m2 )
00:01 2,4 1,4 8,0 Eteläkaakko 20,9 975,6 93 0,40 -
00:05 2,5 1,5 13,0 Etelälounas 5,5 975,6 93 - -
00:11 2,7 1,7 8,0 Eteläkaakko 24,1 975,4 93 - -
00:16 2,7 1,7 13,5 Etelä 7,2 975,2 93 1,40 -
00:21 2,7 1,7 8,0 Etelä 19,3 975,2 93 - -
00:26 2,8 1,8 22,2 Etelälounas 11,9 975,1 93 1,80 -
00:30 2,9 1,9 10,1 Itäkaakko 7,2 975,0 93 1,80 -
00:36 3,0 2,0 20,4 Etelälounas 11,3 974,9 93 2,00 -
00:40 3,1 2,1 15,3 Eteläkaakko 9,8 974,8 93 2,00 -
00:45 3,2 2,2 14,8 Kaakko 8,8 974,7 93 2,00 -
00:50 3,3 2,3 16,9 Etelälounas 11,7 974,7 93 1,80 -
00:55 3,5 2,5 13,5 Kaakko 7,1 974,6 93 1,80 -
01:00 3,6 2,6 15,3 Etelälounas 9,3 974,5 93 3,60 -
01:06 3,7 2,7 25,3 Etelälounas 10,0 974,5 93 2,80 -
01:10 3,8 2,8 23,7 Etelä 13,5 974,3 93 2,20 -
01:16 3,9 2,9 22,2 Etelä 10,8 974,3 93 1,80 -
01:20 4,1 3,0 13,5 Etelälounas 7,6 974,2 93 1,60 -
01:26 4,1 3,0 15,3 Eteläkaakko 11,3 974,1 93 1,40 -
01:30 4,2 3,1 22,2 Eteläkaakko 10,0 974,1 93 1,20 -
01:35 4,3 3,2 22,2 Etelä 14,3 974,1 93 1,00 -
01:41 4,4 3,3 11,3 Etelä 27,4 974,0 93 - -
01:45 4,4 3,4 25,9 Etelälounas 10,8 974,1 93 1,00 -
01:51 4,5 3,5 11,3 Lounas 25,7 974,0 93 0,20 -
01:55 4,6 3,6 16,9 Etelälounas 6,9 974,0 93 0,80 -
02:01 4,7 3,6 11,3 Etelälounas 19,3 974,1 93 - -
02:06 4,7 3,7 18,5 Etelä 12,1 974,2 93 0,80 -
02:11 4,8 3,8 11,3 Etelä 27,4 974,1 93 - -
02:15 5,0 3,9 18,5 Etelälounas 11,6 974,2 93 1,40 -
02:21 5,1 4,0 3,2 Etelälounas 19,3 974,2 93 - -
02:25 5,0 3,9 11,9 Etelä 8,2 974,2 93 2,00 -
02:31 5,1 4,0 8,0 Lounas 12,9 974,2 93 - -
02:35 5,1 4,1 10,1 Lounas 4,5 974,2 93 2,40 -
02:40 5,2 4,2 9,3 Etelälounas 6,1 974,2 93 2,20 -
02:45 5,3 4,3 15,3 Etelälounas 9,8 974,3 93 2,20 -
02:51 5,3 4,3 9,7 Lounas 22,5 974,3 93 0,20 -
02:55 5,3 4,3 16,9 Eteläkaakko 10,1 974,3 93 2,40 -
03:01 5,4 4,3 9,7 Etelälounas 19,3 974,3 93 - -
03:05 5,4 4,4 14,8 Lounas 5,1 974,4 93 2,60 -
03:10 5,5 4,4 10,1 Lounas 6,4 974,3 93 2,20 -
03:15 5,5 4,4 16,9 Lounas 7,1 974,3 93 1,60 -
03:21 5,4 4,4 8,0 Etelälounas 22,5 974,3 93 - -
03:25 5,3 4,3 16,7 Etelälounas 12,7 974,3 93 1,00 -
03:31 5,3 4,3 9,7 Etelälounas 22,5 974,3 93 - -
03:35 5,3 4,3 16,7 Etelälounas 7,1 974,5 93 0,60 -
03:41 5,3 4,1 12,9 Lounas 27,4 974,5 92 - -
03:45 5,3 4,1 24,1 Etelä 17,1 974,5 92 0,60 -
03:51 5,3 4,1 8,0 Lounas 24,1 974,6 92 - -
03:55 5,3 4,1 15,3 Eteläkaakko 10,3 974,7 92 0,20 -
04:01 5,3 4,1 9,7 Lounas 16,1 974,7 92 - -
04:05 5,3 4,1 20,4 Lounas 12,9 974,8 92 - -
04:11 5,4 4,2 11,3 Lounas 20,9 974,8 92 - -
04:15 5,4 4,2 18,5 Länsilounas 12,4 974,9 92 - -
04:21 5,5 4,3 9,7 Lounas 20,9 974,9 92 - -
04:25 5,5 4,3 16,9 Länsilounas 9,2 975,0 92 - -
04:31 5,5 4,3 11,3 Lounas 24,1 974,9 92 - -
04:35 5,5 4,3 13,5 Lounas 9,7 975,0 92 - -
04:41 5,5 4,3 12,9 Etelälounas 20,9 975,0 92 - -
04:45 5,4 4,2 16,9 Etelä 11,1 974,9 92 - -
04:51 5,4 4,2 11,3 Etelälounas 25,7 974,9 92 - -
04:55 5,4 4,1 16,9 Lounas 11,4 975,0 91 - -
05:01 5,4 4,0 14,5 Etelälounas 30,6 975,0 91 - -
05:05 5,4 4,1 15,3 Lounas 11,3 975,2 91 - -
05:11 5,4 4,1 12,9 Lounas 24,1 975,2 91 - -
05:15 5,3 3,8 22,0 Eteläkaakko 13,2 975,2 90 - -
05:21 5,3 3,8 11,3 Etelälounas 24,1 975,2 90 - -
05:25 5,3 3,8 32,0 Etelälounas 15,6 975,2 90 - -
05:31 5,4 3,9 8,0 Etelälounas 32,2 975,2 90 - -
05:35 5,3 3,8 13,0 Länsilounas 8,2 975,2 90 - -
05:41 5,3 3,8 4,8 Lounas 16,1 975,3 90 - -
05:45 5,3 3,8 13,5 Lounas 7,2 975,3 90 - -
05:51 5,2 3,7 9,7 Etelä 22,5 975,3 90 - -
05:55 5,2 3,7 10,1 Etelä 7,6 975,4 90 - -
06:01 5,2 3,7 9,7 Etelälounas 25,7 975,4 90 - -
06:05 5,2 3,7 16,9 Lounas 11,1 975,4 90 - -
06:11 5,2 3,7 4,8 Etelälounas 20,9 975,5 90 - -
06:15 5,2 3,7 20,3 Lounas 13,4 975,5 90 - -
06:21 5,2 3,7 11,3 Lounas 20,9 975,5 90 - -
06:25 5,2 3,7 16,9 Etelälounas 8,8 975,5 90 - -
06:31 5,2 3,6 3,2 Lounas 16,1 975,5 89 - -
06:35 5,2 3,6 20,4 Etelä 10,6 975,5 89 - -
06:41 5,2 3,5 12,9 Etelälounas 24,1 975,5 89 - -
06:45 5,3 3,4 13,5 Lounas 6,6 975,6 88 - -
06:51 5,2 3,4 11,3 Lounas 35,4 975,6 88 - -
06:55 5,1 3,2 32,0 Länsilounas 20,8 975,7 88 0,20 -
07:01 4,9 4,1 14,5 Länsilounas 33,8 975,7 94 0,20 -
07:05 4,8 3,3 18,5 Länsilounas 8,8 975,7 90 0,60 -
07:11 4,8 3,3 4,8 Lounas 27,4 975,6 90 - -
07:15 4,7 3,3 13,5 Länsi 8,0 975,6 91 0,60 -
07:21 4,6 3,3 11,3 Lounas 16,1 975,7 91 - -
07:25 4,6 3,3 20,3 Länsilounas 8,2 975,6 91 0,60 -
07:31 4,6 3,2 4,8 Lounas 22,5 975,7 91 - -
07:35 4,6 3,1 16,9 Eteläkaakko 8,8 975,7 90 0,60 -
07:41 4,5 3,0 8,0 Etelälounas 22,5 975,8 90 - -
07:45 4,4 2,9 15,3 Etelälounas 9,3 975,7 90 0,60 -
07:51 4,3 2,8 9,7 Etelälounas 19,3 975,8 90 - -
07:55 4,3 2,8 16,9 Etelälounas 10,6 975,8 90 0,40 -
08:01 4,4 2,9 12,9 Etelälounas 24,1 975,8 90 - -
08:05 4,6 3,1 15,3 Lounas 10,5 975,9 90 - -
08:11 4,6 2,9 11,3 Lounas 32,2 975,9 89 - -
08:15 4,6 2,9 16,9 Lounas 11,1 975,8 89 - -
08:21 4,6 2,9 8,0 Lounas 22,5 976,0 89 - -
08:25 4,5 2,8 16,9 Lounas 10,1 976,1 89 - -
08:31 4,5 2,8 9,7 Lounas 27,4 976,3 89 - -
08:35 4,4 2,8 13,5 Länsilounas 8,5 976,4 89 - -
08:41 4,4 2,7 8,0 Lounas 19,3 976,4 89 - -
08:45 4,4 2,7 13,5 Etelälounas 10,1 976,5 89 - -
08:51 4,4 2,8 11,3 Lounas 22,5 976,5 89 - -
08:55 4,5 2,8 24,1 Lounas 10,0 976,6 89 - -
09:01 4,5 2,8 9,7 Lounas 24,1 976,7 89 - -
09:05 4,6 2,9 13,5 Lounas 9,7 976,8 89 - -
09:11 4,6 2,9 9,7 Lounas 20,9 976,9 89 - -
09:15 4,7 3,0 30,4 Lounas 18,3 977,1 89 - -
09:21 4,8 3,1 8,0 Lounas 30,6 977,2 89 - -
09:25 4,8 2,9 18,5 Etelälounas 13,0 977,3 88 - -
09:31 4,8 2,9 12,9 Lounas 25,7 977,4 88 - -
09:35 4,8 2,9 15,3 Lounas 11,1 977,5 88 - -
09:41 4,8 3,0 9,7 Lounas 19,3 977,5 88 - -
09:45 4,8 2,9 16,9 Etelä 13,0 977,5 88 - 7
09:51 4,8 3,0 11,3 Lounas 20,9 977,6 88 - 9
09:55 4,9 3,1 25,9 Lounas 13,5 977,7 88 - 9
10:01 4,9 2,9 12,9 Lounas 25,7 977,8 87 - 12
10:05 4,9 2,9 11,9 Etelä 5,8 977,8 87 - 18
10:11 4,9 2,9 11,3 Lounas 24,1 977,9 87 - 19
10:15 4,9 3,1 18,5 Eteläkaakko 8,2 977,9 88 - 23
10:21 4,8 3,0 14,5 Etelälounas 30,6 977,9 88 - 18
10:25 4,8 2,8 22,0 Lounas 15,8 977,9 87 - 18

Download your copy of this data-set  here

Our weather-data as stored at Weather Underground. Alkuperäinen skripti Jim McMurry. Sovitettu myös templatelle Leuven-Template.eu